Time;durP1;ratioP1;P1;durP2;ratioP2;P2;SDS_P1;SDS_P2;PMS_P1;PMS_P2;Temp;Humidity;BMP_temperature;BMP_pressure;BME280_temperature;BME280_humidity;BME280_pressure;Samples;Min_cycle;Max_cycle;Signal;HPM_P1;HPM_P2
2023/03/15 00:01:26;;;;;;;5.13;2.65;;;;;;;3.25;69.49;97440.19;4972807;28;20058;-75
2023/03/15 00:03:53;;;;;;;4.95;2.63;;;;;;;3.23;70.46;97447.78;4971930;28;20038;-74
2023/03/15 00:06:19;;;;;;;5.63;3.10;;;;;;;3.21;70.10;97460.78;4971971;28;20387;-74
2023/03/15 00:08:46;;;;;;;4.82;2.40;;;;;;;3.21;69.93;97470.81;4972268;28;20054;-74
2023/03/15 00:11:13;;;;;;;3.30;2.20;;;;;;;3.16;70.50;97479.75;4974162;28;20035;-74
2023/03/15 00:13:39;;;;;;;3.60;2.25;;;;;;;3.18;70.15;97483.00;4972330;28;20070;-74
2023/03/15 00:16:04;;;;;;;2.30;1.88;;;;;;;3.15;70.48;97486.25;4972392;28;20080;-75
2023/03/15 00:18:30;;;;;;;4.03;2.10;;;;;;;3.12;69.73;97493.03;4972327;28;20022;-74
2023/03/15 00:20:56;;;;;;;2.60;2.08;;;;;;;3.09;70.00;97492.75;4972157;28;20054;-73
2023/03/15 00:23:22;;;;;;;2.95;1.90;;;;;;;3.04;70.16;97498.19;4972281;28;20129;-74
2023/03/15 00:25:49;;;;;;;2.65;2.20;;;;;;;3.03;70.08;97493.84;4971987;28;20042;-74
2023/03/15 00:28:15;;;;;;;2.38;1.95;;;;;;;3.02;69.82;97503.88;4973101;28;20034;-74
2023/03/15 00:30:40;;;;;;;3.67;2.50;;;;;;;3.04;69.22;97512.53;4971758;28;20049;-74
2023/03/15 00:33:06;;;;;;;4.18;2.20;;;;;;;3.04;69.85;97528.00;4971894;28;20033;-74
2023/03/15 00:35:33;;;;;;;3.22;2.40;;;;;;;3.06;70.15;97520.38;4972463;28;20122;-74
2023/03/15 00:37:59;;;;;;;5.32;2.60;;;;;;;3.08;69.65;97531.75;4973159;28;20073;-74
2023/03/15 00:40:25;;;;;;;8.18;3.97;;;;;;;3.08;69.81;97546.13;4971179;28;20492;-74
2023/03/15 00:42:52;;;;;;;23.02;6.57;;;;;;;3.04;69.52;97550.47;4970806;28;20042;-75
2023/03/15 00:45:19;;;;;;;22.88;7.63;;;;;;;3.07;69.61;97555.34;4968616;28;20429;-74
2023/03/15 00:47:47;;;;;;;5.15;2.47;;;;;;;3.09;69.67;97560.47;4970902;28;20114;-74
2023/03/15 00:50:12;;;;;;;7.47;2.75;;;;;;;3.11;68.93;97571.84;4970885;28;20023;-74
2023/03/15 00:52:38;;;;;;;10.80;3.10;;;;;;;3.10;69.06;97572.94;4970972;28;20054;-73
2023/03/15 00:55:04;;;;;;;4.80;3.00;;;;;;;3.11;69.16;97585.41;4971356;28;20097;-75
2023/03/15 00:57:33;;;;;;;6.93;3.20;;;;;;;3.07;69.42;97581.59;4978110;28;20490;-75
2023/03/15 00:59:58;;;;;;;6.07;3.13;;;;;;;3.06;68.90;97590.81;4973736;28;20383;-75
2023/03/15 01:02:24;;;;;;;6.50;2.50;;;;;;;3.07;68.80;97595.16;4970174;28;20025;-74
2023/03/15 01:04:50;;;;;;;7.78;3.00;;;;;;;3.05;68.34;97594.63;4972672;28;20391;-75
2023/03/15 01:07:15;;;;;;;6.68;2.55;;;;;;;3.05;68.11;97608.19;4968935;28;20038;-73
2023/03/15 01:09:41;;;;;;;3.80;2.05;;;;;;;2.98;67.95;97592.16;4970913;28;20027;-74
2023/03/15 01:12:07;;;;;;;6.18;2.65;;;;;;;2.95;68.22;97592.69;4971382;28;20027;-74
2023/03/15 01:14:34;;;;;;;4.50;2.22;;;;;;;2.92;67.94;97612.19;4971129;28;20027;-74
2023/03/15 01:17:00;;;;;;;5.75;2.17;;;;;;;2.92;68.44;97615.72;4970553;28;20033;-74
2023/03/15 01:19:25;;;;;;;5.35;2.35;;;;;;;2.89;68.48;97629.81;4970528;28;20394;-74
2023/03/15 01:21:52;;;;;;;6.18;2.50;;;;;;;2.87;68.52;97625.72;4988394;28;20026;-74
2023/03/15 01:24:17;;;;;;;5.10;2.30;;;;;;;2.86;68.29;97630.34;4990327;28;20497;-74
2023/03/15 01:26:42;;;;;;;4.40;2.20;;;;;;;2.90;68.72;97638.72;4976616;28;20074;-74
2023/03/15 01:29:08;;;;;;;4.50;2.17;;;;;;;2.95;67.85;97641.44;4978539;28;20046;-74
2023/03/15 01:31:33;;;;;;;7.20;2.70;;;;;;;2.96;67.84;97648.50;4970894;28;20338;-74
2023/03/15 01:33:59;;;;;;;7.65;2.47;;;;;;;2.93;67.82;97654.44;4970788;28;20033;-74
2023/03/15 01:36:25;;;;;;;4.43;2.20;;;;;;;2.89;67.97;97659.59;4970335;28;20552;-74
2023/03/15 01:38:51;;;;;;;6.47;2.55;;;;;;;2.91;67.84;97653.91;4970611;28;20114;-74
2023/03/15 01:41:17;;;;;;;5.45;2.38;;;;;;;2.93;67.93;97662.56;4970648;28;20049;-74
2023/03/15 01:43:46;;;;;;;4.78;2.30;;;;;;;2.92;67.90;97661.78;4974447;28;20034;-74
2023/03/15 01:46:24;;;;;;;5.78;2.53;;;;;;;2.95;67.78;97671.25;4974744;28;20157;-74
2023/03/15 01:48:55;;;;;;;5.00;2.50;;;;;;;2.96;67.77;97668.28;4974697;28;20027;-74
2023/03/15 01:51:58;;;;;;;5.70;2.10;;;;;;;2.95;67.87;97666.66;4975065;28;20030;-74
2023/03/15 01:54:36;;;;;;;5.53;2.38;;;;;;;2.99;67.00;97666.94;4918182;29;20531;-74
2023/03/15 01:57:24;;;;;;;5.65;2.75;;;;;;;2.94;67.26;97659.63;4969908;28;20054;-74
2023/03/15 01:59:58;;;;;;;5.88;2.88;;;;;;;2.95;67.48;97663.13;4974584;28;20062;-74
2023/03/15 02:02:25;;;;;;;5.18;2.75;;;;;;;2.95;67.21;97661.25;4974747;28;20117;-74
2023/03/15 02:05:08;;;;;;;5.15;2.90;;;;;;;2.93;66.83;97674.22;4974663;28;20030;-74
2023/03/15 02:07:37;;;;;;;7.43;2.78;;;;;;;2.90;67.39;97668.53;4974228;28;20046;-74
2023/03/15 02:10:06;;;;;;;5.77;2.90;;;;;;;2.92;66.75;97672.59;4974139;28;20039;-74
2023/03/15 02:12:39;;;;;;;5.57;2.87;;;;;;;2.95;66.62;97669.38;4974185;28;20019;-74
2023/03/15 02:15:06;;;;;;;5.63;2.90;;;;;;;2.97;66.82;97669.09;4974056;28;20395;-73
2023/03/15 02:17:37;;;;;;;6.05;2.92;;;;;;;2.97;66.62;97672.63;4987550;28;20023;-74
2023/03/15 02:20:26;;;;;;;7.20;3.08;;;;;;;2.97;67.09;97669.91;4984812;28;20125;-74
2023/03/15 02:23:13;;;;;;;7.13;3.20;;;;;;;2.98;66.45;97674.25;4974188;28;20023;-74
2023/03/15 02:26:00;;;;;;;6.97;2.92;;;;;;;3.00;66.04;97675.88;4973852;28;20050;-73
2023/03/15 02:28:26;;;;;;;10.73;3.17;;;;;;;2.94;66.16;97673.16;4974095;28;20027;-74
2023/03/15 02:30:51;;;;;;;4.32;2.80;;;;;;;2.87;66.02;97679.88;4987781;28;20126;-74
2023/03/15 02:33:25;;;;;;;8.00;3.10;;;;;;;2.86;66.47;97684.50;4973885;28;20098;-74
2023/03/15 02:35:50;;;;;;;6.10;3.83;;;;;;;2.84;66.59;97683.94;4978514;28;20061;-74
2023/03/15 02:38:16;;;;;;;6.30;3.10;;;;;;;2.82;65.90;97686.94;4993227;28;20050;-74
2023/03/15 02:40:46;;;;;;;6.22;3.10;;;;;;;2.83;66.25;97693.16;4988206;28;20030;-74
2023/03/15 02:43:16;;;;;;;6.32;3.10;;;;;;;2.81;66.54;97693.44;4978058;28;20041;-74
2023/03/15 02:45:41;;;;;;;6.15;3.38;;;;;;;2.81;66.77;97692.59;4992521;28;20029;-74
2023/03/15 02:48:10;;;;;;;8.75;3.53;;;;;;;2.81;66.32;97706.13;4993525;28;20019;-73
2023/03/15 02:50:36;;;;;;;6.50;3.38;;;;;;;2.78;66.40;97718.31;4993540;28;20432;-74
2023/03/15 02:53:02;;;;;;;7.80;3.75;;;;;;;2.78;65.96;97733.75;4992854;28;20060;-73
2023/03/15 02:55:31;;;;;;;6.72;3.70;;;;;;;2.77;66.16;97730.22;4993232;28;20118;-73
2023/03/15 02:57:57;;;;;;;9.73;4.10;;;;;;;2.76;66.60;97730.47;4987048;28;20034;-74
2023/03/15 03:00:23;;;;;;;7.22;3.78;;;;;;;2.75;66.97;97732.38;4984360;28;20041;-74
2023/03/15 03:02:48;;;;;;;6.57;3.40;;;;;;;2.76;66.47;97738.59;4992894;28;20027;-73
2023/03/15 03:05:15;;;;;;;6.18;3.40;;;;;;;2.75;66.95;97732.38;4991554;28;20038;-74
2023/03/15 03:07:43;;;;;;;7.35;3.58;;;;;;;2.75;66.46;97731.56;4985933;28;20524;-74
2023/03/15 03:10:11;;;;;;;7.85;3.55;;;;;;;2.76;66.91;97728.59;4972996;28;20034;-74
2023/03/15 03:12:36;;;;;;;9.05;4.03;;;;;;;2.78;66.88;97728.31;4973342;28;20078;-74
2023/03/15 03:15:03;;;;;;;7.13;3.75;;;;;;;2.82;67.06;97741.09;4973097;28;20471;-74
2023/03/15 03:17:29;;;;;;;8.93;3.95;;;;;;;2.86;66.45;97741.38;4973294;28;20117;-74
2023/03/15 03:19:55;;;;;;;8.30;4.10;;;;;;;2.83;66.88;97740.03;4972937;28;20023;-74
2023/03/15 03:22:23;;;;;;;10.05;4.10;;;;;;;2.87;66.16;97736.75;4973408;28;20023;-73
2023/03/15 03:24:49;;;;;;;7.72;4.05;;;;;;;2.90;66.45;97734.34;4973468;28;20042;-74
2023/03/15 03:27:16;;;;;;;11.23;4.70;;;;;;;2.86;66.14;97738.66;4972555;28;20462;-74
2023/03/15 03:29:41;;;;;;;9.65;3.83;;;;;;;2.86;66.22;97738.66;4972209;28;20057;-74
2023/03/15 03:32:07;;;;;;;10.15;3.58;;;;;;;2.83;66.50;97741.91;4982686;28;20486;-74
2023/03/15 03:34:33;;;;;;;11.15;3.95;;;;;;;2.80;66.66;97750.53;4980554;28;20397;-74
2023/03/15 03:36:58;;;;;;;12.52;4.07;;;;;;;2.75;66.38;97762.19;4972797;28;20023;-74
2023/03/15 03:39:24;;;;;;;8.30;3.65;;;;;;;2.70;66.30;97764.03;4971043;28;20027;-73
2023/03/15 03:41:50;;;;;;;8.35;4.25;;;;;;;2.70;66.93;97772.16;4972903;28;20411;-74
2023/03/15 03:44:16;;;;;;;11.18;4.50;;;;;;;2.70;67.08;97775.69;4987103;28;20026;-74
2023/03/15 03:46:41;;;;;;;17.40;5.75;;;;;;;2.72;66.17;97780.81;4972310;28;20454;-74
2023/03/15 03:49:06;;;;;;;9.90;3.85;;;;;;;2.72;66.31;97784.38;4973741;28;20031;-74
2023/03/15 03:51:33;;;;;;;9.48;4.15;;;;;;;2.75;66.83;97791.13;4991888;28;20062;-74
2023/03/15 03:54:00;;;;;;;12.98;5.85;;;;;;;2.74;67.11;97793.03;4991700;28;20026;-74
2023/03/15 03:56:25;;;;;;;9.95;4.38;;;;;;;2.73;66.12;97801.41;4991653;28;20467;-74
2023/03/15 03:58:50;;;;;;;28.35;11.10;;;;;;;2.70;66.87;97799.22;4991252;28;20034;-74
2023/03/15 04:01:16;;;;;;;15.23;6.63;;;;;;;2.71;66.20;97800.84;4991435;28;20380;-74
2023/03/15 04:03:41;;;;;;;19.40;9.60;;;;;;;2.71;67.09;97798.97;4991473;28;20026;-74
2023/03/15 04:06:06;;;;;;;9.65;4.97;;;;;;;2.71;66.94;97801.69;4990621;28;20513;-74
2023/03/15 04:08:32;;;;;;;9.82;4.57;;;;;;;2.69;66.25;97803.84;4974028;28;20027;-73
2023/03/15 04:10:58;;;;;;;7.38;3.25;;;;;;;2.64;66.95;97799.22;4971656;28;20542;-74
2023/03/15 04:13:24;;;;;;;12.40;6.18;;;;;;;2.60;66.62;97803.50;4971940;28;20035;-73
2023/03/15 04:15:50;;;;;;;7.10;3.88;;;;;;;2.60;66.65;97810.81;4971632;28;20102;-73
2023/03/15 04:18:16;;;;;;;8.75;3.70;;;;;;;2.58;66.18;97827.31;4971958;28;20398;-75
2023/03/15 04:20:45;;;;;;;31.45;13.20;;;;;;;2.59;66.33;97822.72;4971679;28;20452;-74
2023/03/15 04:23:12;;;;;;;23.00;10.33;;;;;;;2.62;66.37;97825.72;4984346;28;20046;-74
2023/03/15 04:25:37;;;;;;;23.10;8.52;;;;;;;2.67;66.96;97819.53;4971525;28;20050;-75
2023/03/15 04:28:03;;;;;;;13.80;4.72;;;;;;;2.73;66.74;97825.78;4984255;28;20344;-74
2023/03/15 04:30:29;;;;;;;12.50;4.40;;;;;;;2.76;66.38;97830.69;4969921;28;20494;-73
2023/03/15 04:32:59;;;;;;;8.98;3.78;;;;;;;2.75;66.59;97839.88;4983548;28;20038;-75
2023/03/15 04:35:29;;;;;;;27.70;8.30;;;;;;;2.73;66.22;97836.59;4989756;28;20046;-74
2023/03/15 04:37:55;;;;;;;8.40;3.53;;;;;;;2.70;66.21;97842.53;4987578;28;20128;-74
2023/03/15 04:40:22;;;;;;;9.25;3.70;;;;;;;2.66;65.97;97844.97;4971254;28;20022;-74
2023/03/15 04:42:49;;;;;;;14.75;5.65;;;;;;;2.64;66.67;97844.41;4971447;28;20535;-74
2023/03/15 04:45:15;;;;;;;20.45;6.40;;;;;;;2.64;66.49;97849.81;4971196;28;20471;-74
2023/03/15 04:47:40;;;;;;;11.32;3.88;;;;;;;2.60;66.02;97849.53;4971466;28;20085;-74
2023/03/15 04:50:06;;;;;;;12.55;4.63;;;;;;;2.58;66.55;97861.69;4971176;28;20031;-74
2023/03/15 04:52:32;;;;;;;12.50;3.95;;;;;;;2.55;65.95;97860.31;4971460;28;20101;-74
2023/03/15 04:54:57;;;;;;;23.02;6.65;;;;;;;2.49;66.19;97859.44;4970728;28;20125;-74
2023/03/15 04:57:23;;;;;;;24.90;7.43;;;;;;;2.48;65.99;97854.31;4971009;28;20483;-74
2023/03/15 04:59:48;;;;;;;20.02;5.95;;;;;;;2.44;66.34;97864.00;4970254;28;20436;-74
2023/03/15 05:02:14;;;;;;;9.10;2.40;;;;;;;2.42;66.40;97864.28;4970770;28;20577;-74
2023/03/15 05:04:39;;;;;;;9.63;2.83;;;;;;;2.40;66.44;97871.00;4970765;28;20038;-74
2023/03/15 05:07:04;;;;;;;10.98;3.60;;;;;;;2.40;66.30;97869.13;4970395;28;20027;-74
2023/03/15 05:09:36;;;;;;;15.63;5.10;;;;;;;2.34;65.86;97870.16;4970994;28;20051;-74
2023/03/15 05:12:04;;;;;;;23.83;9.68;;;;;;;2.31;65.70;97868.78;4971012;28;20661;-74
2023/03/15 05:14:31;;;;;;;23.45;6.82;;;;;;;2.30;65.87;97872.53;4970810;28;20035;-74
2023/03/15 05:16:58;;;;;;;9.70;2.78;;;;;;;2.25;66.24;97872.50;4974204;28;20070;-74
2023/03/15 05:19:27;;;;;;;18.40;5.88;;;;;;;2.23;66.03;97870.06;4986911;28;20077;-74
2023/03/15 05:21:53;;;;;;;26.55;5.97;;;;;;;2.26;66.24;97870.63;4970591;28;20039;-74
2023/03/15 05:24:19;;;;;;;10.27;2.22;;;;;;;2.23;65.63;97872.75;4970864;28;20054;-74
2023/03/15 05:26:45;;;;;;;10.32;2.55;;;;;;;2.20;66.46;97873.28;4970439;28;20047;-74
2023/03/15 05:29:12;;;;;;;16.30;3.45;;;;;;;2.20;65.63;97869.78;4970643;28;20037;-74
2023/03/15 05:31:37;;;;;;;13.32;3.80;;;;;;;2.18;65.71;97878.13;4970528;28;20089;-74
2023/03/15 05:34:05;;;;;;;8.43;1.70;;;;;;;2.16;65.80;97872.16;4970792;28;20031;-73
2023/03/15 05:36:31;;;;;;;8.68;2.25;;;;;;;2.16;65.97;97871.34;4970373;28;20034;-74
2023/03/15 05:38:57;;;;;;;53.25;16.95;;;;;;;2.20;65.90;97873.28;4970413;28;20039;-74
2023/03/15 05:41:22;;;;;;;11.23;3.33;;;;;;;2.23;65.63;97883.59;4970724;28;20045;-74
2023/03/15 05:43:49;;;;;;;15.07;3.58;;;;;;;2.26;65.82;97893.06;4970647;28;20054;-74
2023/03/15 05:46:14;;;;;;;21.20;5.10;;;;;;;2.31;66.42;97895.81;4970568;28;20035;-73
2023/03/15 05:48:40;;;;;;;14.27;3.33;;;;;;;2.34;66.18;97889.91;4971183;28;20022;-73
2023/03/15 05:51:05;;;;;;;6.32;1.75;;;;;;;2.36;65.79;97903.19;4987200;28;20117;-74
2023/03/15 05:53:30;;;;;;;8.35;1.67;;;;;;;2.41;66.31;97914.06;4990434;28;20022;-73
2023/03/15 05:55:56;;;;;;;17.23;3.78;;;;;;;2.47;66.15;97909.50;4983352;28;20027;-74
2023/03/15 05:58:21;;;;;;;19.02;6.13;;;;;;;2.48;65.70;97908.44;4977490;28;20177;-73
2023/03/15 06:00:48;;;;;;;8.27;2.40;;;;;;;2.47;66.18;97912.22;4983998;28;20349;-74
2023/03/15 06:03:14;;;;;;;10.20;3.00;;;;;;;2.44;65.81;97927.09;4970839;28;20190;-73
2023/03/15 06:05:40;;;;;;;12.55;2.78;;;;;;;2.45;65.85;97933.31;4970745;28;20081;-74
2023/03/15 06:08:05;;;;;;;32.88;8.02;;;;;;;2.49;65.64;97939.84;4970483;28;20038;-74
2023/03/15 06:10:30;;;;;;;21.98;4.30;;;;;;;2.52;65.80;97952.88;4970397;28;20029;-74
2023/03/15 06:12:56;;;;;;;9.38;2.85;;;;;;;2.53;65.35;97955.31;4970662;28;20030;-74
2023/03/15 06:15:21;;;;;;;12.77;3.03;;;;;;;2.53;65.70;97959.94;4970457;28;20035;-74
2023/03/15 06:17:47;;;;;;;9.65;2.15;;;;;;;2.51;65.32;97967.47;4983779;28;20042;-73
2023/03/15 06:20:13;;;;;;;28.52;8.20;;;;;;;2.52;65.64;97975.34;4969812;28;20090;-74
2023/03/15 06:22:38;;;;;;;13.55;3.63;;;;;;;2.55;65.67;97978.59;4970292;28;20031;-73
2023/03/15 06:25:04;;;;;;;10.98;2.53;;;;;;;2.52;65.37;97971.81;4974435;28;20064;-73
2023/03/15 06:27:30;;;;;;;13.95;3.42;;;;;;;2.53;65.53;97973.47;4988164;28;20030;-73
2023/03/15 06:29:56;;;;;;;9.13;3.10;;;;;;;2.58;65.62;97988.94;4992756;28;20045;-73
2023/03/15 06:32:21;;;;;;;14.70;3.97;;;;;;;2.56;65.04;97978.38;4992693;28;20034;-73
2023/03/15 06:34:47;;;;;;;8.15;2.33;;;;;;;2.49;65.83;97983.97;4993095;28;20035;-73
2023/03/15 06:37:12;;;;;;;8.45;1.92;;;;;;;2.50;65.12;97988.31;4980030;28;20547;-73
2023/03/15 06:39:39;;;;;;;9.40;2.78;;;;;;;2.51;65.72;97991.84;4975260;28;20019;-73
2023/03/15 06:42:07;;;;;;;11.68;3.03;;;;;;;2.48;65.14;97997.78;4982071;28;20031;-74
2023/03/15 06:44:33;;;;;;;13.75;3.70;;;;;;;2.48;65.72;98006.69;4973488;28;20026;-74
2023/03/15 06:46:59;;;;;;;5.80;1.83;;;;;;;2.52;65.76;98009.72;4972988;28;20033;-73
2023/03/15 06:49:24;;;;;;;5.57;2.20;;;;;;;2.48;65.30;98014.00;4973265;28;20031;-74
2023/03/15 06:51:50;;;;;;;7.63;1.70;;;;;;;2.49;65.07;98012.94;4972813;28;20023;-72
2023/03/15 06:54:15;;;;;;;6.15;1.65;;;;;;;2.51;65.03;98021.63;4973188;28;20073;-73
2023/03/15 06:56:40;;;;;;;7.93;1.77;;;;;;;2.54;65.12;98029.25;4973169;28;20034;-73
2023/03/15 06:59:06;;;;;;;7.55;1.90;;;;;;;2.56;65.04;98032.50;4973277;28;20494;-73
2023/03/15 07:01:32;;;;;;;5.18;2.03;;;;;;;2.58;65.80;98030.38;4979489;28;20027;-73
2023/03/15 07:03:57;;;;;;;12.00;4.20;;;;;;;2.61;65.12;98035.28;4972263;28;20065;-74
2023/03/15 07:06:23;;;;;;;6.10;1.90;;;;;;;2.62;65.51;98033.38;4972612;28;20114;-73
2023/03/15 07:08:48;;;;;;;8.10;2.40;;;;;;;2.64;65.28;98037.47;4984956;28;20049;-73
2023/03/15 07:11:14;;;;;;;6.55;2.03;;;;;;;2.67;65.02;98038.84;4992055;28;20505;-73
2023/03/15 07:13:39;;;;;;;9.05;1.83;;;;;;;2.71;64.43;98042.69;4992318;28;20069;-73
2023/03/15 07:16:05;;;;;;;4.93;1.52;;;;;;;2.72;64.63;98060.56;4980618;28;20602;-73
2023/03/15 07:18:33;;;;;;;7.88;2.00;;;;;;;2.73;64.77;98059.50;4972555;28;20027;-73
2023/03/15 07:21:00;;;;;;;9.90;2.30;;;;;;;2.81;64.98;98066.34;4972468;28;20034;-73
2023/03/15 07:23:26;;;;;;;4.75;1.75;;;;;;;2.89;64.91;98055.03;4986249;28;20639;-73
2023/03/15 07:25:53;;;;;;;9.43;1.92;;;;;;;2.96;64.81;98062.97;4977160;28;20071;-73
2023/03/15 07:28:19;;;;;;;9.80;2.50;;;;;;;3.02;65.48;98059.22;4972588;28;20030;-73
2023/03/15 07:31:00;;;;;;;7.43;2.42;;;;;;;3.08;64.35;98062.78;4986745;28;20113;-74
2023/03/15 07:33:27;;;;;;;7.53;2.15;;;;;;;3.10;64.47;98066.06;4985920;28;20042;-74
2023/03/15 07:35:52;;;;;;;8.65;2.60;;;;;;;3.12;64.72;98074.75;4991908;28;20040;-73
2023/03/15 07:38:20;;;;;;;8.02;2.20;;;;;;;3.14;63.89;98075.31;4976124;28;20027;-73
2023/03/15 07:40:46;;;;;;;6.50;1.60;;;;;;;3.13;64.09;98090.78;4971200;28;20435;-73
2023/03/15 07:43:12;;;;;;;9.02;1.70;;;;;;;3.10;64.04;98085.03;4971153;28;20058;-73
2023/03/15 07:45:37;;;;;;;6.63;1.70;;;;;;;3.15;63.70;98095.91;4972490;28;20050;-74
2023/03/15 07:48:03;;;;;;;9.32;2.38;;;;;;;3.20;64.16;98095.97;4984409;28;20792;-72
2023/03/15 07:50:28;;;;;;;6.85;2.13;;;;;;;3.25;63.89;98109.56;4953749;28;20360;-73
2023/03/15 07:52:54;;;;;;;6.90;1.83;;;;;;;3.29;63.66;98107.16;4972536;28;20030;-72
2023/03/15 07:55:24;;;;;;;8.13;2.53;;;;;;;3.31;64.10;98096.88;4972944;28;20058;-73
2023/03/15 07:57:50;;;;;;;20.02;6.10;;;;;;;3.38;63.72;98094.78;4981138;28;20027;-72
2023/03/15 08:00:16;;;;;;;16.38;4.88;;;;;;;3.49;64.05;98094.88;4972512;28;20031;-73
2023/03/15 08:02:41;;;;;;;14.43;3.88;;;;;;;3.56;63.51;98090.84;4972579;28;20480;-72
2023/03/15 08:05:07;;;;;;;10.05;2.05;;;;;;;3.66;63.10;98098.28;4987868;28;20031;-73
2023/03/15 08:07:32;;;;;;;6.18;1.80;;;;;;;3.72;63.38;98099.91;4988562;28;20026;-73
2023/03/15 08:09:58;;;;;;;5.70;1.73;;;;;;;3.75;63.54;98101.31;4990523;28;20475;-73
2023/03/15 08:12:24;;;;;;;8.75;1.80;;;;;;;3.83;62.39;98108.97;4969769;28;20093;-73
2023/03/15 08:14:50;;;;;;;8.35;1.77;;;;;;;3.89;63.37;98115.22;4972125;28;20082;-74
2023/03/15 08:17:16;;;;;;;7.28;1.98;;;;;;;3.92;62.40;98116.59;4977604;28;20372;-73
2023/03/15 08:19:41;;;;;;;5.68;1.70;;;;;;;3.96;62.61;98123.13;4985304;28;20085;-72
2023/03/15 08:22:07;;;;;;;10.88;3.60;;;;;;;4.05;63.12;98126.19;4972303;28;20077;-74
2023/03/15 08:24:32;;;;;;;17.27;5.85;;;;;;;4.13;62.78;98137.38;4971954;28;20069;-69
2023/03/15 08:26:58;;;;;;;9.68;3.35;;;;;;;4.27;62.60;98132.28;4971940;28;20043;-69
2023/03/15 08:29:23;;;;;;;5.85;2.35;;;;;;;4.39;62.14;98140.22;4971668;28;20113;-69
2023/03/15 08:31:49;;;;;;;11.45;3.28;;;;;;;4.45;62.28;98130.22;4972112;28;20476;-69
2023/03/15 08:34:15;;;;;;;7.55;2.55;;;;;;;4.56;62.21;98139.22;4970421;28;20472;-68
2023/03/15 08:36:40;;;;;;;9.43;2.20;;;;;;;4.57;61.90;98143.59;4971821;28;20027;-70
2023/03/15 08:39:07;;;;;;;6.07;2.00;;;;;;;4.57;61.12;98138.94;4972156;28;20030;-70
2023/03/15 08:41:32;;;;;;;5.65;1.67;;;;;;;4.58;61.32;98150.66;4991043;28;20399;-70
2023/03/15 08:43:58;;;;;;;9.45;4.40;;;;;;;4.65;60.98;98144.97;4975740;28;20042;-71
2023/03/15 08:46:24;;;;;;;9.18;3.30;;;;;;;4.69;61.61;98149.59;4971253;28;20219;-71
2023/03/15 08:48:49;;;;;;;4.47;2.10;;;;;;;4.74;60.41;98155.06;4971176;28;20423;-71
2023/03/15 08:51:15;;;;;;;6.10;2.42;;;;;;;4.77;60.12;98149.09;4970829;28;20035;-71
2023/03/15 08:53:40;;;;;;;7.95;2.10;;;;;;;4.81;60.60;98148.56;4969963;28;20105;-71
2023/03/15 08:56:05;;;;;;;5.47;2.20;;;;;;;4.86;60.49;98159.44;4970302;28;20042;-71
2023/03/15 08:58:33;;;;;;;4.43;2.10;;;;;;;4.84;59.28;98156.19;4966494;28;20467;-70
2023/03/15 09:00:58;;;;;;;10.13;2.75;;;;;;;4.75;58.87;98170.28;4968753;28;20039;-69
2023/03/15 09:03:24;;;;;;;5.35;1.85;;;;;;;4.72;58.58;98167.28;4969809;28;20022;-69
2023/03/15 09:05:54;;;;;;;7.03;2.50;;;;;;;4.79;59.19;98169.75;4971078;28;20058;-69
2023/03/15 09:08:20;;;;;;;5.90;2.15;;;;;;;4.87;59.22;98182.81;4971827;28;20048;-70
2023/03/15 09:10:45;;;;;;;4.13;1.80;;;;;;;4.88;57.84;98184.47;4969719;28;20539;-70
2023/03/15 09:13:11;;;;;;;4.13;1.90;;;;;;;4.86;57.28;98179.31;4978233;28;20043;-69
2023/03/15 09:15:36;;;;;;;6.60;1.80;;;;;;;4.83;57.79;98179.84;4968900;28;20037;-71
2023/03/15 09:18:01;;;;;;;3.42;1.70;;;;;;;4.81;55.79;98181.16;4968602;28;20073;-70
2023/03/15 09:20:27;;;;;;;6.22;1.60;;;;;;;4.74;56.81;98187.66;4968730;28;20512;-70
2023/03/15 09:22:55;;;;;;;4.72;1.95;;;;;;;4.70;57.25;98177.59;4968953;28;20050;-71
2023/03/15 09:25:22;;;;;;;6.78;2.20;;;;;;;4.72;57.05;98176.22;4969284;28;20377;-71
2023/03/15 09:27:47;;;;;;;6.10;1.73;;;;;;;4.75;56.35;98188.47;4969535;28;20039;-71
2023/03/15 09:30:14;;;;;;;6.22;1.77;;;;;;;4.73;55.78;98185.22;4969747;28;20359;-71
2023/03/15 09:32:39;;;;;;;2.97;1.30;;;;;;;4.71;55.45;98176.50;4970127;28;20089;-69
2023/03/15 09:35:07;;;;;;;7.00;2.40;;;;;;;4.64;55.56;98175.94;4969464;28;20039;-70
2023/03/15 09:37:33;;;;;;;3.30;1.98;;;;;;;4.61;54.98;98178.09;4969045;28;20023;-70
2023/03/15 09:40:00;;;;;;;5.43;1.80;;;;;;;4.62;56.29;98195.22;4981634;28;20110;-70
2023/03/15 09:42:50;;;;;;;5.85;1.70;;;;;;;4.71;56.29;98188.19;4969794;28;20130;-70
2023/03/15 09:45:43;;;;;;;6.82;2.33;;;;;;;4.78;55.23;98196.09;4969595;28;20030;-70
2023/03/15 09:48:31;;;;;;;4.28;1.52;;;;;;;4.84;56.22;98197.78;4969086;28;20059;-70
2023/03/15 09:51:19;;;;;;;7.10;1.92;;;;;;;4.96;56.31;98194.81;4969699;28;20027;-70
2023/03/15 09:53:50;;;;;;;7.10;1.85;;;;;;;4.99;55.62;98198.91;4969668;28;20046;-70
2023/03/15 09:56:23;;;;;;;6.00;1.95;;;;;;;5.01;56.49;98199.44;4969969;28;20039;-70
2023/03/15 09:58:52;;;;;;;5.78;2.38;;;;;;;5.12;56.07;98192.97;4977402;28;20134;-70
2023/03/15 10:01:24;;;;;;;7.07;2.23;;;;;;;5.18;56.29;98194.63;4982038;28;20027;-69
2023/03/15 10:03:51;;;;;;;6.63;2.20;;;;;;;5.23;54.97;98191.09;4971859;28;20282;-70
2023/03/15 10:06:28;;;;;;;3.45;1.48;;;;;;;5.22;53.20;98192.19;4972646;28;20088;-70
2023/03/15 10:08:59;;;;;;;8.23;2.00;;;;;;;5.11;54.31;98185.06;4971103;28;20037;-69
2023/03/15 10:11:38;;;;;;;5.22;1.48;;;;;;;5.09;53.28;98188.06;4970295;28;20034;-69
2023/03/15 10:14:22;;;;;;;6.15;1.83;;;;;;;5.06;53.67;98188.59;4970710;28;20603;-68
2023/03/15 10:16:50;;;;;;;3.65;1.38;;;;;;;5.06;53.66;98189.44;4973540;28;20037;-69
2023/03/15 10:19:44;;;;;;;7.53;1.83;;;;;;;5.03;53.72;98192.69;4970647;28;20146;-69
2023/03/15 10:22:12;;;;;;;5.60;1.50;;;;;;;5.01;53.49;98196.72;4972422;28;20543;-71
2023/03/15 10:24:53;;;;;;;4.22;1.63;;;;;;;4.97;53.17;98193.75;4973111;28;20110;-69
2023/03/15 10:27:24;;;;;;;2.97;1.73;;;;;;;4.91;52.57;98198.31;4972367;28;20053;-69
2023/03/15 10:29:53;;;;;;;4.30;1.38;;;;;;;4.87;51.89;98210.00;4971595;28;20110;-71
2023/03/15 10:32:27;;;;;;;7.75;1.67;;;;;;;4.87;52.83;98208.13;4973049;28;20042;-69
2023/03/15 10:34:55;;;;;;;3.83;1.25;;;;;;;4.89;51.70;98211.34;4976847;28;20038;-68
2023/03/15 10:37:23;;;;;;;3.95;1.27;;;;;;;4.86;52.10;98208.38;4977822;28;20443;-70
2023/03/15 10:39:53;;;;;;;4.93;2.03;;;;;;;4.85;51.44;98209.44;4971007;28;20473;-70
2023/03/15 10:42:31;;;;;;;6.88;1.92;;;;;;;4.74;51.82;98212.09;4971519;28;20495;-74
2023/03/15 10:44:57;;;;;;;6.40;2.10;;;;;;;4.72;51.48;98224.31;4973360;28;20046;-74
2023/03/15 10:47:25;;;;;;;5.63;1.50;;;;;;;4.69;51.63;98228.38;4971973;28;20039;-71
2023/03/15 10:49:58;;;;;;;8.15;3.67;;;;;;;4.72;52.91;98236.00;4972988;28;20506;-70
2023/03/15 10:52:43;;;;;;;8.07;1.80;;;;;;;4.75;52.47;98230.03;4973877;28;20073;-71
2023/03/15 10:55:15;;;;;;;6.45;1.77;;;;;;;4.84;52.83;98221.41;4973451;28;20372;-70
2023/03/15 10:57:51;;;;;;;7.10;2.30;;;;;;;4.89;52.92;98221.41;4969805;28;20027;-70
2023/03/15 11:00:35;;;;;;;5.97;2.10;;;;;;;4.94;52.61;98221.44;4973400;28;20544;-71
2023/03/15 11:03:03;;;;;;;7.20;2.88;;;;;;;4.90;52.16;98217.63;4988327;28;20114;-70
2023/03/15 11:05:31;;;;;;;42.13;13.07;;;;;;;4.80;52.04;98223.84;4972758;28;20033;-71
2023/03/15 11:07:59;;;;;;;6.82;2.45;;;;;;;4.78;52.17;98231.44;4972828;28;20039;-71
2023/03/15 11:10:27;;;;;;;22.63;6.13;;;;;;;4.77;51.59;98229.78;4971180;28;20106;-71
2023/03/15 11:13:30;;;;;;;23.70;5.03;;;;;;;4.69;52.45;98233.81;4973165;28;20035;-71
2023/03/15 11:16:04;;;;;;;27.17;6.07;;;;;;;4.73;51.84;98240.34;4913119;29;20067;-70
2023/03/15 11:18:35;;;;;;;9.27;3.05;;;;;;;4.75;52.82;98235.47;4963098;28;20053;-70
2023/03/15 11:21:04;;;;;;;7.00;2.45;;;;;;;4.82;53.29;98226.28;4971894;28;20050;-71
2023/03/15 11:23:35;;;;;;;10.57;4.25;;;;;;;4.84;52.18;98229.53;4972298;28;20026;-70
2023/03/15 11:26:01;;;;;;;7.95;4.05;;;;;;;4.81;52.38;98227.34;4971607;28;20541;-70
2023/03/15 11:28:28;;;;;;;8.18;3.30;;;;;;;4.84;53.29;98229.53;4972916;28;20058;-71
2023/03/15 11:30:56;;;;;;;8.27;3.15;;;;;;;4.94;53.11;98234.19;4974606;28;20019;-71
2023/03/15 11:33:27;;;;;;;6.38;2.35;;;;;;;5.00;53.41;98225.81;4992265;28;20022;-71
2023/03/15 11:35:56;;;;;;;3.83;2.47;;;;;;;5.07;52.93;98231.84;4978737;28;20045;-71
2023/03/15 11:38:38;;;;;;;13.18;6.05;;;;;;;5.13;52.92;98240.00;4971899;28;20086;-72
2023/03/15 11:41:33;;;;;;;4.80;3.10;;;;;;;5.12;52.66;98231.03;4971409;28;20731;-71
2023/03/15 11:44:08;;;;;;;7.68;3.83;;;;;;;5.11;52.90;98239.44;4971581;28;20031;-71